TimeMST,TemperatureF,Dew PointF,Humidity,Sea Level PressureIn,VisibilityMPH,Wind Direction,Wind SpeedMPH,Gust SpeedMPH,PrecipitationIn,Events,Conditions,WindDirDegrees,DateUTC
12:58 AM,42.4,16.0,34,30.04,10.0,North,8.1,-,N/A,,Clear,360,2012-11-19 07:58:00
1:58 AM,44.4,15.8,32,30.06,10.0,Variable,3.5,-,N/A,,Clear,0,2012-11-19 08:58:00
2:58 AM,44.2,15.3,31,30.06,10.0,West,10.4,-,N/A,,Clear,270,2012-11-19 09:58:00
3:58 AM,39.2,14.7,37,30.09,10.0,North,3.5,-,N/A,,Clear,350,2012-11-19 10:58:00
4:58 AM,39.9,14.0,35,30.12,10.0,North,6.9,-,N/A,,Clear,10,2012-11-19 11:58:00
5:58 AM,42.6,14.5,32,30.12,10.0,NNE,8.1,-,N/A,,Clear,30,2012-11-19 12:58:00
6:58 AM,37.2,14.9,40,30.19,10.0,NE,6.9,-,N/A,,Clear,40,2012-11-19 13:58:00
7:55 AM,41.4,15.1,35,30.11,10.0,NE,4.6,-,N/A,,Clear,50,2012-11-19 14:55:00
8:55 AM,50.7,15.1,24,30.10,10.0,Variable,3.5,-,N/A,,Clear,0,2012-11-19 15:55:00
9:21 AM,51.8,15.8,24,30.05,10.0,West,8.1,18.4,N/A,,Clear,270,2012-11-19 16:21:00
9:23 AM,51.8,15.8,24,30.05,10.0,West,9.2,18.4,N/A,,Clear,270,2012-11-19 16:23:00
9:55 AM,53.4,14.5,21,30.05,10.0,Variable,5.8,-,N/A,,Clear,0,2012-11-19 16:55:00
10:59 AM,55.4,13.1,19,30.13,10.0,ENE,6.9,-,N/A,,Clear,70,2012-11-19 17:59:00
11:54 AM,57.2,14.0,18,30.25,10.0,South,9.2,-,N/A,,Clear,190,2012-11-19 18:54:00
12:54 PM,57.2,12.2,17,30.24,10.0,SSW,9.2,-,N/A,,Clear,210,2012-11-19 19:54:00
1:58 PM,55.9,13.3,19,30.13,10.0,SSE,5.8,-,N/A,,Partly Cloudy,160,2012-11-19 20:58:00
2:58 PM,54.3,13.1,20,30.13,10.0,South,10.4,-,N/A,,Partly Cloudy,180,2012-11-19 21:58:00
3:58 PM,52.7,15.1,23,30.17,10.0,South,8.1,-,N/A,,Clear,170,2012-11-19 22:58:00
4:58 PM,48.6,14.4,25,30.19,10.0,South,6.9,-,N/A,,Partly Cloudy,170,2012-11-19 23:58:00
5:58 PM,44.6,14.4,30,30.26,10.0,SSE,6.9,-,N/A,,Clear,160,2012-11-20 00:58:00
6:58 PM,39.7,13.8,35,30.27,10.0,NE,4.6,-,N/A,,Clear,50,2012-11-20 01:58:00
7:58 PM,37.6,14.4,39,30.28,10.0,North,3.5,-,N/A,,Clear,10,2012-11-20 02:58:00
8:58 PM,29.5,13.3,51,30.28,10.0,NNW,9.2,-,N/A,,Clear,340,2012-11-20 03:58:00
9:58 PM,30.7,14.4,51,30.28,10.0,North,9.2,-,N/A,,Clear,360,2012-11-20 04:58:00
10:58 PM,28.9,15.3,57,30.28,10.0,North,9.2,-,N/A,,Clear,10,2012-11-20 05:58:00
11:58 PM,31.1,15.3,52,30.27,10.0,NNE,10.4,-,N/A,,Clear,20,2012-11-20 06:58:00